Oto, IA (51044)

3:35 PM CDT on July 23, 2014 (GMT -0500)
The Danbury Review (KIADANBU2) Elev 1162 ft | 42.24 °N, 95.72 °W | Change Station

Current weather conditions updated 11 seconds ago

Partly Cloudy
Partly Cloudy
81.1 °F
Feels Like 82 °F
N
0.0
Wind Variable Wind from ENE
Gusts 2.0 mph

Today is forecast to be nearly the same temperature as yesterday.

Today
High -- | Low -- °F
--% Chance of Precip.
Yesterday
High -- | Low -- °F
Precip. -- in
6:07 AM 8:52 PM
Waning Crescent, 9% visible
Pressure 30.20 in
Visibility 10.0 miles
Clouds Clear
Heat Index 82 °F
Dew Point 60 °F
Humidity 49%
Rainfall -999.00 in
Snow Depth Not available.
UV 10 out of 12
Pollen 5.40 out of 12
Air Quality Not available.
Flu Activity Not available.
METAR KSUX 231952Z AUTO VRB04KT 10SM CLR 28/14 A3022 RMK AO2 SLP226 T02830139

More Conditions Fewer Conditions

Pressure 30.20 in
Visibility 10.0 miles
Clouds Clear
Heat Index 82 °F
Dew Point 60 °F
Humidity 49%
Rainfall -999.00 in
Snow Depth Not available.
UV 10 out of 12
Pollen 5.40 out of 12
Air Quality Not available.
Flu Activity Not available.
METAR KSUX 231952Z AUTO VRB04KT 10SM CLR 28/14 A3022 RMK AO2 SLP226 T02830139

More Conditions Fewer Conditions

10-Day Weather Forecast

Almanac

Astronomy

Jul. 23, 2014 Rise Set
Actual Time 6:07 AM CDT 8:52 PM CDT
Civil Twilight 5:34 AM CDT 9:24 PM CDT
Nautical Twilight 4:53 AM CDT 10:05 PM CDT
Astronomical Twilight 4:06 AM CDT 10:52 PM CDT
Moon 3:27 AM CDT 6:21 PM CDT
Length of Visible Light 15h 49m
Length of Day
14h 44m
Tomorrow will be 1m 52s shorter.
Waning Crescent, 9% of the Moon is Illuminated
Today
Waning Crescent
Jul 26
New
Aug 3
First Quarter
Aug 10
Full
Aug 17
Last Quarter

Today's Extremes

State Highs State Lows

Community

WunderPhotos

Upload Photos

1,736,757 photos uploaded!

Nearby

Snow Depth

Station Depth Elevation
No new snow has been reported.

Earthquake Activity

City Distance Mag. Time & Date
No recent earthquake activity has been reported nearby.
Minimum magnitude displayed is 2.5.

Coastal Water Temperatures

Place Temperature
No Stations Reporting

Nearby Weather Stations

Station Location Temp. Heat Index Dew Point Humidity Wind Precip. Elev Updated Type
The Danbury Review, Danbury, IA 81.1 °F 82 °F 60 °F 49% ENE  at  0.0 mph 0.00 in / hr 1162 ft 3:35 PM CDT Normal
HADS WEST FORK DITCH AT HORNICK IA, Rodney, IA 82 °F 80 °F - - North  at  - 0.00 in / hr 1045 ft 3:00 PM CDT MADIS
MesoWest SHAGBARK HILLS , Correctionville, IA 78 °F 79 °F 55 °F 45% North  at  2 mph 0.00 in / hr 1399 ft 2:00 PM CDT MADIS
Castana, Castana, IA 80.8 °F 82 °F 62 °F 53% North  at  4.0 mph 0.00 in / hr 1099 ft 3:35 PM CDT Rapid Fire
MesoWest SALIX , Salix, IA 76 °F 74 °F - - North  at  - 0.00 in / hr 1077 ft 2:20 PM CDT MADIS
MesoWest ONAWA , Blencoe, IA 87 °F 84 °F - - North  at  - 0.00 in / hr 1048 ft 1:55 PM CDT MADIS

Show More Stations Show Fewer Stations